Homestead ARB Airport
KHST : now visible

Airfield :











YOU CAN JOIN US ON...

 
LOGIN :

Register | Disclaimer

   EN    FR    IT 

 









Legend :    VFR   Marginal VFR   IFR   Intensive IFR   Very Intensive IFR
Visi :
Ceiling :
>= 8 km
>= 3000ft
5 to 8 km
1000 to 3000 ft
1500m to 5 km
500 to 1000 ft
800 to 1500m
200 to 500 ft
< 800m
< 200 ft
Symbols :   Thunderstorms  Fog  Heavy snow  Heavy precipitations  Wind > 20 kt






- Airport Elevation : 5 ft


KHST - Homestead ARB

CURRENT METAR :
  • 220457Z AUTO 33020G25KT 10SM CLR 08/02 A3010 RMK AO2 SLPNO T00810019 401960081 $

EXPIRED METARs :
  • 220357Z AUTO 32015KT 10SM CLR 10/01 A3010 RMK AO2 SLPNO T00970011 $

TAF TAF KHST
Valid from the 22 at 04:00 until the 23 at 10:00 UTC


220400Z 2204/2310 32015G20KT 9999 SKC QNH3003INS
TEMPO 2211/2213 BKN010
BECMG 2217/2218 32015G23KT 9999 SCT025 BKN040 QNH3000INS
BECMG 2223/2224 35012KT 9999 BKN025 QNH2998INS TX20/2219Z TN05/2212Z



MET'MAP, your aeronautical weather chart ! - Copyright ORBIFLY December 2007 - Disclaimer

ORBIFLY MET'MAP TEAM :

Programming & Development : Alexandra Zaïnal
Concept & original design : Baudouin d'Aumeries
Assistance for programming : Marc-Olivier Méhu
Technical & hardware support : Manuel Goepfert

Contact : metmap@orbifly.com




SOURCES & CREDITS :

   NOAA       Earth
Advisory